Главная страница
METAR-TAF:

METAR-TAF

Аэропорты :

Москва-Шереметьево, Россия

Шереметьево

широта: 55-59N, долгота: 037-30E, высота над уровнем моря: 190 м

Текущие метеонаблюдения

Эта сводка был подготовлена 37 минут назад, в 16:00 UTC
Ветер 8 Узел от северо-западный
Температура 20°C
Влажность 53%
Давление 1013 hPa
Видимость 10 км и более
Нет облачности ниже 1500 м, и нет кучево-дождевой облачности

METAR: UUEE 231600Z 31004MPS CAVOK 20/10 Q1013 R24R/CLRD62 R24L/CLRD62 NOSIG

Время: 19:37 (16:37 UTC)

Прогноз

Эта сводка был подготовлена 2 часа и 43 минут назад, в 13:54 UTC
Прогноз действительный с 23-го 15 UTC до 24-го 15 UTC
Ветер 12 Узел от западный
Видимость 10 км и более
Отдельные облака на высоте 3000 фута

TAF: UUEE 231354Z 2315/2415 28006MPS 9999 SCT030 TX21/2413Z TN11/2401Z

Метеонаблюдения и прогнозы для более 4000 аэропортов (сводки METAR и TAF).

Имеющиеся станции представлены на карте желтыми и красными точками.

Чтобы увидеть название станции, наведите на нее мышь.

Затем щелкните, чтобы увидеть метеонаблюдения и метеопрогнозы.

Управление картой: чтобы увеличить масштаб, щелкните зеленые кнопки с черным крестиком; чтобы уменьшить масштаб, щелкните зеленую кнопку с тире; для просмотра соседних карт щелкайте зеленые стрелки.


METAR-TAF: